sensor_id;sensor_type;location;lat;lon;timestamp;temperature;humidity
6627;DHT22;3349;49.830;8.748;2024-03-25T00:01:33;6.90;63.10
6627;DHT22;3349;49.830;8.748;2024-03-25T00:03:59;6.90;63.20
6627;DHT22;3349;49.830;8.748;2024-03-25T00:06:25;6.90;63.10
6627;DHT22;3349;49.830;8.748;2024-03-25T00:08:53;6.80;63.00
6627;DHT22;3349;49.830;8.748;2024-03-25T00:11:19;6.80;62.50
6627;DHT22;3349;49.830;8.748;2024-03-25T00:13:46;6.80;62.90
6627;DHT22;3349;49.830;8.748;2024-03-25T00:16:11;6.80;62.10
6627;DHT22;3349;49.830;8.748;2024-03-25T00:18:38;6.80;62.00
6627;DHT22;3349;49.830;8.748;2024-03-25T00:21:04;6.80;62.30
6627;DHT22;3349;49.830;8.748;2024-03-25T00:23:31;6.80;63.20
6627;DHT22;3349;49.830;8.748;2024-03-25T00:25:58;6.80;62.50
6627;DHT22;3349;49.830;8.748;2024-03-25T00:28:24;6.80;63.00
6627;DHT22;3349;49.830;8.748;2024-03-25T00:30:50;6.80;63.00
6627;DHT22;3349;49.830;8.748;2024-03-25T00:33:17;6.80;63.10
6627;DHT22;3349;49.830;8.748;2024-03-25T00:35:42;6.80;62.80
6627;DHT22;3349;49.830;8.748;2024-03-25T00:38:11;6.80;63.10
6627;DHT22;3349;49.830;8.748;2024-03-25T00:40:36;6.70;62.50
6627;DHT22;3349;49.830;8.748;2024-03-25T00:43:05;6.70;61.80
6627;DHT22;3349;49.830;8.748;2024-03-25T00:45:30;6.70;61.60
6627;DHT22;3349;49.830;8.748;2024-03-25T00:47:57;6.70;61.20
6627;DHT22;3349;49.830;8.748;2024-03-25T00:50:25;6.70;60.50
6627;DHT22;3349;49.830;8.748;2024-03-25T00:52:51;6.60;60.10
6627;DHT22;3349;49.830;8.748;2024-03-25T00:55:17;6.60;60.90
6627;DHT22;3349;49.830;8.748;2024-03-25T00:57:44;6.60;61.00
6627;DHT22;3349;49.830;8.748;2024-03-25T01:00:12;6.70;61.20
6627;DHT22;3349;49.830;8.748;2024-03-25T01:02:41;6.60;60.80
6627;DHT22;3349;49.830;8.748;2024-03-25T01:05:07;6.60;62.00
6627;DHT22;3349;49.830;8.748;2024-03-25T01:07:34;6.60;61.60
6627;DHT22;3349;49.830;8.748;2024-03-25T01:10:00;6.60;62.20
6627;DHT22;3349;49.830;8.748;2024-03-25T01:12:27;6.60;61.20
6627;DHT22;3349;49.830;8.748;2024-03-25T01:14:53;6.50;61.80
6627;DHT22;3349;49.830;8.748;2024-03-25T01:17:21;6.50;62.00
6627;DHT22;3349;49.830;8.748;2024-03-25T01:19:47;6.40;62.20
6627;DHT22;3349;49.830;8.748;2024-03-25T01:22:13;6.40;61.70
6627;DHT22;3349;49.830;8.748;2024-03-25T01:24:39;6.40;61.80
6627;DHT22;3349;49.830;8.748;2024-03-25T01:27:06;6.40;61.50
6627;DHT22;3349;49.830;8.748;2024-03-25T01:29:31;6.40;61.30
6627;DHT22;3349;49.830;8.748;2024-03-25T01:31:58;6.40;61.40
6627;DHT22;3349;49.830;8.748;2024-03-25T01:34:26;6.40;62.20
6627;DHT22;3349;49.830;8.748;2024-03-25T01:36:52;6.40;61.10
6627;DHT22;3349;49.830;8.748;2024-03-25T01:39:18;6.40;61.70
6627;DHT22;3349;49.830;8.748;2024-03-25T01:41:45;6.40;61.90
6627;DHT22;3349;49.830;8.748;2024-03-25T01:44:11;6.40;61.80
6627;DHT22;3349;49.830;8.748;2024-03-25T01:46:38;6.40;61.70
6627;DHT22;3349;49.830;8.748;2024-03-25T01:49:05;6.30;61.70
6627;DHT22;3349;49.830;8.748;2024-03-25T01:51:34;6.30;61.80
6627;DHT22;3349;49.830;8.748;2024-03-25T01:54:01;6.30;61.90
6627;DHT22;3349;49.830;8.748;2024-03-25T01:56:31;6.20;61.30
6627;DHT22;3349;49.830;8.748;2024-03-25T01:58:58;6.20;61.40
6627;DHT22;3349;49.830;8.748;2024-03-25T02:01:25;6.20;61.60
6627;DHT22;3349;49.830;8.748;2024-03-25T02:03:51;6.30;61.90
6627;DHT22;3349;49.830;8.748;2024-03-25T02:06:19;6.20;61.50
6627;DHT22;3349;49.830;8.748;2024-03-25T02:08:47;6.30;61.00
6627;DHT22;3349;49.830;8.748;2024-03-25T02:11:15;6.20;61.50
6627;DHT22;3349;49.830;8.748;2024-03-25T02:13:41;6.20;61.80
6627;DHT22;3349;49.830;8.748;2024-03-25T02:16:08;6.20;61.90
6627;DHT22;3349;49.830;8.748;2024-03-25T02:18:34;6.20;61.90
6627;DHT22;3349;49.830;8.748;2024-03-25T02:21:01;6.20;62.50
6627;DHT22;3349;49.830;8.748;2024-03-25T02:23:27;6.20;62.90
6627;DHT22;3349;49.830;8.748;2024-03-25T02:25:55;6.20;62.10
6627;DHT22;3349;49.830;8.748;2024-03-25T02:28:21;6.20;62.40
6627;DHT22;3349;49.830;8.748;2024-03-25T02:30:47;6.20;62.50
6627;DHT22;3349;49.830;8.748;2024-03-25T02:33:13;6.10;62.40
6627;DHT22;3349;49.830;8.748;2024-03-25T02:35:42;6.10;62.40
6627;DHT22;3349;49.830;8.748;2024-03-25T02:38:09;6.10;62.40
6627;DHT22;3349;49.830;8.748;2024-03-25T02:40:36;6.10;62.40
6627;DHT22;3349;49.830;8.748;2024-03-25T02:43:04;6.10;62.60
6627;DHT22;3349;49.830;8.748;2024-03-25T02:45:32;6.10;63.10
6627;DHT22;3349;49.830;8.748;2024-03-25T02:47:58;6.10;63.50
6627;DHT22;3349;49.830;8.748;2024-03-25T02:50:25;6.10;63.80
6627;DHT22;3349;49.830;8.748;2024-03-25T02:52:51;6.10;63.40
6627;DHT22;3349;49.830;8.748;2024-03-25T02:55:18;6.00;63.60
6627;DHT22;3349;49.830;8.748;2024-03-25T02:57:44;6.00;63.50
6627;DHT22;3349;49.830;8.748;2024-03-25T03:00:13;6.00;63.80
6627;DHT22;3349;49.830;8.748;2024-03-25T03:02:39;5.90;63.90
6627;DHT22;3349;49.830;8.748;2024-03-25T03:05:06;5.90;64.40
6627;DHT22;3349;49.830;8.748;2024-03-25T03:07:32;5.80;64.60
6627;DHT22;3349;49.830;8.748;2024-03-25T03:09:58;5.80;64.80
6627;DHT22;3349;49.830;8.748;2024-03-25T03:12:24;5.80;64.60
6627;DHT22;3349;49.830;8.748;2024-03-25T03:14:51;5.80;65.20
6627;DHT22;3349;49.830;8.748;2024-03-25T03:17:18;5.80;65.30
6627;DHT22;3349;49.830;8.748;2024-03-25T03:19:45;5.80;65.20
6627;DHT22;3349;49.830;8.748;2024-03-25T03:22:11;5.90;65.70
6627;DHT22;3349;49.830;8.748;2024-03-25T03:24:37;5.90;65.80
6627;DHT22;3349;49.830;8.748;2024-03-25T03:27:03;5.90;65.80
6627;DHT22;3349;49.830;8.748;2024-03-25T03:29:30;5.90;65.30
6627;DHT22;3349;49.830;8.748;2024-03-25T03:31:56;5.90;64.40
6627;DHT22;3349;49.830;8.748;2024-03-25T03:34:24;5.90;64.70
6627;DHT22;3349;49.830;8.748;2024-03-25T03:36:49;5.90;64.80
6627;DHT22;3349;49.830;8.748;2024-03-25T03:39:16;5.90;64.40
6627;DHT22;3349;49.830;8.748;2024-03-25T03:41:43;5.90;64.30
6627;DHT22;3349;49.830;8.748;2024-03-25T03:44:09;5.90;64.00
6627;DHT22;3349;49.830;8.748;2024-03-25T03:46:35;5.90;64.10
6627;DHT22;3349;49.830;8.748;2024-03-25T03:49:02;5.80;64.50
6627;DHT22;3349;49.830;8.748;2024-03-25T03:51:29;5.80;64.00
6627;DHT22;3349;49.830;8.748;2024-03-25T03:53:56;5.70;64.50
6627;DHT22;3349;49.830;8.748;2024-03-25T03:56:21;5.60;64.60
6627;DHT22;3349;49.830;8.748;2024-03-25T03:58:48;5.60;65.40
6627;DHT22;3349;49.830;8.748;2024-03-25T04:01:15;5.50;66.00
6627;DHT22;3349;49.830;8.748;2024-03-25T04:03:42;5.40;66.30
6627;DHT22;3349;49.830;8.748;2024-03-25T04:06:09;5.30;66.60
6627;DHT22;3349;49.830;8.748;2024-03-25T04:08:38;5.30;67.40
6627;DHT22;3349;49.830;8.748;2024-03-25T04:11:04;5.30;67.90
6627;DHT22;3349;49.830;8.748;2024-03-25T04:13:31;5.20;68.00
6627;DHT22;3349;49.830;8.748;2024-03-25T04:16:01;5.10;68.30
6627;DHT22;3349;49.830;8.748;2024-03-25T04:18:29;5.10;68.80
6627;DHT22;3349;49.830;8.748;2024-03-25T04:20:55;5.10;69.80
6627;DHT22;3349;49.830;8.748;2024-03-25T04:23:22;5.00;69.60
6627;DHT22;3349;49.830;8.748;2024-03-25T04:25:49;5.00;70.30
6627;DHT22;3349;49.830;8.748;2024-03-25T04:28:16;4.90;70.30
6627;DHT22;3349;49.830;8.748;2024-03-25T04:30:42;4.90;70.40
6627;DHT22;3349;49.830;8.748;2024-03-25T04:33:08;4.80;70.90
6627;DHT22;3349;49.830;8.748;2024-03-25T04:35:34;4.80;71.80
6627;DHT22;3349;49.830;8.748;2024-03-25T04:38:01;4.80;73.20
6627;DHT22;3349;49.830;8.748;2024-03-25T04:40:27;4.80;73.00
6627;DHT22;3349;49.830;8.748;2024-03-25T04:42:54;4.80;72.80
6627;DHT22;3349;49.830;8.748;2024-03-25T04:45:20;4.70;72.90
6627;DHT22;3349;49.830;8.748;2024-03-25T04:47:46;4.60;73.50
6627;DHT22;3349;49.830;8.748;2024-03-25T04:50:11;4.70;75.00
6627;DHT22;3349;49.830;8.748;2024-03-25T04:52:37;4.60;75.20
6627;DHT22;3349;49.830;8.748;2024-03-25T04:55:03;4.60;75.60
6627;DHT22;3349;49.830;8.748;2024-03-25T04:57:29;4.50;75.20
6627;DHT22;3349;49.830;8.748;2024-03-25T04:59:56;4.60;77.00
6627;DHT22;3349;49.830;8.748;2024-03-25T05:02:22;4.50;76.80
6627;DHT22;3349;49.830;8.748;2024-03-25T05:04:48;4.50;76.60
6627;DHT22;3349;49.830;8.748;2024-03-25T05:07:14;4.50;76.40
6627;DHT22;3349;49.830;8.748;2024-03-25T05:12:16;4.50;76.80
6627;DHT22;3349;49.830;8.748;2024-03-25T05:14:41;4.50;76.20
6627;DHT22;3349;49.830;8.748;2024-03-25T05:17:09;4.50;75.70
6627;DHT22;3349;49.830;8.748;2024-03-25T05:19:34;4.50;76.50
6627;DHT22;3349;49.830;8.748;2024-03-25T05:22:00;4.40;76.10
6627;DHT22;3349;49.830;8.748;2024-03-25T05:24:26;4.40;76.80
6627;DHT22;3349;49.830;8.748;2024-03-25T05:26:52;4.40;77.40
6627;DHT22;3349;49.830;8.748;2024-03-25T05:29:17;4.50;77.40
6627;DHT22;3349;49.830;8.748;2024-03-25T05:31:56;4.40;77.70
6627;DHT22;3349;49.830;8.748;2024-03-25T05:34:24;4.40;78.50
6627;DHT22;3349;49.830;8.748;2024-03-25T05:36:50;4.40;78.60
6627;DHT22;3349;49.830;8.748;2024-03-25T05:39:16;4.30;78.50
6627;DHT22;3349;49.830;8.748;2024-03-25T05:41:41;4.30;79.10
6627;DHT22;3349;49.830;8.748;2024-03-25T05:44:07;4.20;78.50
6627;DHT22;3349;49.830;8.748;2024-03-25T05:46:33;4.20;79.90
6627;DHT22;3349;49.830;8.748;2024-03-25T05:49:01;4.10;80.00
6627;DHT22;3349;49.830;8.748;2024-03-25T05:51:28;4.20;80.70
6627;DHT22;3349;49.830;8.748;2024-03-25T05:53:54;4.10;80.50
6627;DHT22;3349;49.830;8.748;2024-03-25T05:56:20;4.20;80.30
6627;DHT22;3349;49.830;8.748;2024-03-25T05:58:46;4.30;80.00
6627;DHT22;3349;49.830;8.748;2024-03-25T06:01:12;4.10;78.90
6627;DHT22;3349;49.830;8.748;2024-03-25T06:03:38;4.20;80.50
6627;DHT22;3349;49.830;8.748;2024-03-25T06:06:04;4.10;79.70
6627;DHT22;3349;49.830;8.748;2024-03-25T06:08:31;4.00;79.90
6627;DHT22;3349;49.830;8.748;2024-03-25T06:11:00;4.00;80.40
6627;DHT22;3349;49.830;8.748;2024-03-25T06:13:26;3.90;81.80
6627;DHT22;3349;49.830;8.748;2024-03-25T06:15:52;3.90;83.80
6627;DHT22;3349;49.830;8.748;2024-03-25T06:18:18;4.00;83.90
6627;DHT22;3349;49.830;8.748;2024-03-25T06:20:44;4.00;83.40
6627;DHT22;3349;49.830;8.748;2024-03-25T06:23:10;4.10;84.30
6627;DHT22;3349;49.830;8.748;2024-03-25T06:25:37;4.10;84.80
6627;DHT22;3349;49.830;8.748;2024-03-25T06:28:03;4.10;84.10
6627;DHT22;3349;49.830;8.748;2024-03-25T06:30:29;4.20;84.40
6627;DHT22;3349;49.830;8.748;2024-03-25T06:33:13;4.40;84.50
6627;DHT22;3349;49.830;8.748;2024-03-25T06:36:09;4.50;83.20
6627;DHT22;3349;49.830;8.748;2024-03-25T06:38:35;4.50;82.00
6627;DHT22;3349;49.830;8.748;2024-03-25T06:41:02;4.60;80.50
6627;DHT22;3349;49.830;8.748;2024-03-25T06:43:28;4.70;79.40
6627;DHT22;3349;49.830;8.748;2024-03-25T06:45:54;4.80;77.60
6627;DHT22;3349;49.830;8.748;2024-03-25T06:48:19;4.90;76.70
6627;DHT22;3349;49.830;8.748;2024-03-25T06:50:52;4.90;75.80
6627;DHT22;3349;49.830;8.748;2024-03-25T06:53:18;4.90;75.20
6627;DHT22;3349;49.830;8.748;2024-03-25T06:55:51;5.00;74.80
6627;DHT22;3349;49.830;8.748;2024-03-25T06:58:18;5.10;74.80
6627;DHT22;3349;49.830;8.748;2024-03-25T07:00:44;5.10;74.60
6627;DHT22;3349;49.830;8.748;2024-03-25T07:03:10;5.10;74.90
6627;DHT22;3349;49.830;8.748;2024-03-25T07:05:36;5.20;75.10
6627;DHT22;3349;49.830;8.748;2024-03-25T07:08:02;5.30;74.80
6627;DHT22;3349;49.830;8.748;2024-03-25T07:10:28;5.30;74.60
6627;DHT22;3349;49.830;8.748;2024-03-25T07:12:53;5.40;75.10
6627;DHT22;3349;49.830;8.748;2024-03-25T07:15:20;5.40;74.80
6627;DHT22;3349;49.830;8.748;2024-03-25T07:17:46;5.50;73.90
6627;DHT22;3349;49.830;8.748;2024-03-25T07:20:12;5.50;73.50
6627;DHT22;3349;49.830;8.748;2024-03-25T07:22:38;5.50;73.30
6627;DHT22;3349;49.830;8.748;2024-03-25T07:25:04;5.60;73.10
6627;DHT22;3349;49.830;8.748;2024-03-25T07:27:30;5.70;71.10
6627;DHT22;3349;49.830;8.748;2024-03-25T07:29:56;5.80;71.20
6627;DHT22;3349;49.830;8.748;2024-03-25T07:32:23;5.80;70.10
6627;DHT22;3349;49.830;8.748;2024-03-25T07:34:49;5.80;70.00
6627;DHT22;3349;49.830;8.748;2024-03-25T07:37:15;5.90;70.20
6627;DHT22;3349;49.830;8.748;2024-03-25T07:39:40;5.90;70.50
6627;DHT22;3349;49.830;8.748;2024-03-25T07:42:06;6.00;68.20
6627;DHT22;3349;49.830;8.748;2024-03-25T07:44:32;6.00;67.70
6627;DHT22;3349;49.830;8.748;2024-03-25T07:46:58;6.10;68.10
6627;DHT22;3349;49.830;8.748;2024-03-25T07:49:25;6.10;68.20
6627;DHT22;3349;49.830;8.748;2024-03-25T07:51:50;6.20;65.90
6627;DHT22;3349;49.830;8.748;2024-03-25T07:54:16;6.30;65.50
6627;DHT22;3349;49.830;8.748;2024-03-25T07:56:42;6.40;64.00
6627;DHT22;3349;49.830;8.748;2024-03-25T07:59:08;6.50;62.70
6627;DHT22;3349;49.830;8.748;2024-03-25T08:01:34;6.60;61.80
6627;DHT22;3349;49.830;8.748;2024-03-25T08:03:59;6.70;61.10
6627;DHT22;3349;49.830;8.748;2024-03-25T08:06:26;6.80;61.10
6627;DHT22;3349;49.830;8.748;2024-03-25T08:08:52;6.80;59.20
6627;DHT22;3349;49.830;8.748;2024-03-25T08:11:18;6.90;59.60
6627;DHT22;3349;49.830;8.748;2024-03-25T08:13:44;6.90;60.10
6627;DHT22;3349;49.830;8.748;2024-03-25T08:16:09;6.80;59.30
6627;DHT22;3349;49.830;8.748;2024-03-25T08:18:35;6.70;59.70
6627;DHT22;3349;49.830;8.748;2024-03-25T08:21:01;6.60;58.70
6627;DHT22;3349;49.830;8.748;2024-03-25T08:23:28;6.70;59.40
6627;DHT22;3349;49.830;8.748;2024-03-25T08:25:54;6.70;59.50
6627;DHT22;3349;49.830;8.748;2024-03-25T08:28:20;6.70;59.90
6627;DHT22;3349;49.830;8.748;2024-03-25T08:30:46;6.80;60.10
6627;DHT22;3349;49.830;8.748;2024-03-25T08:33:12;6.80;59.50
6627;DHT22;3349;49.830;8.748;2024-03-25T08:35:38;6.90;60.20
6627;DHT22;3349;49.830;8.748;2024-03-25T08:38:04;7.00;59.60
6627;DHT22;3349;49.830;8.748;2024-03-25T08:40:31;7.00;58.80
6627;DHT22;3349;49.830;8.748;2024-03-25T08:42:57;7.00;57.30
6627;DHT22;3349;49.830;8.748;2024-03-25T08:45:22;7.10;58.10
6627;DHT22;3349;49.830;8.748;2024-03-25T08:47:48;7.10;57.90
6627;DHT22;3349;49.830;8.748;2024-03-25T08:50:14;7.20;57.60
6627;DHT22;3349;49.830;8.748;2024-03-25T08:52:40;7.20;57.20
6627;DHT22;3349;49.830;8.748;2024-03-25T08:55:06;7.30;56.80
6627;DHT22;3349;49.830;8.748;2024-03-25T08:57:33;7.40;56.90
6627;DHT22;3349;49.830;8.748;2024-03-25T08:59:59;7.50;56.50
6627;DHT22;3349;49.830;8.748;2024-03-25T09:02:25;7.70;56.10
6627;DHT22;3349;49.830;8.748;2024-03-25T09:04:50;7.80;55.60
6627;DHT22;3349;49.830;8.748;2024-03-25T09:07:16;7.90;56.30
6627;DHT22;3349;49.830;8.748;2024-03-25T09:09:42;8.00;54.80
6627;DHT22;3349;49.830;8.748;2024-03-25T09:12:26;8.10;52.40
6627;DHT22;3349;49.830;8.748;2024-03-25T09:14:53;8.20;51.90
6627;DHT22;3349;49.830;8.748;2024-03-25T09:17:19;8.40;52.10
6627;DHT22;3349;49.830;8.748;2024-03-25T09:19:44;8.60;51.70
6627;DHT22;3349;49.830;8.748;2024-03-25T09:22:10;8.90;51.20
6627;DHT22;3349;49.830;8.748;2024-03-25T09:24:36;9.20;50.50
6627;DHT22;3349;49.830;8.748;2024-03-25T09:27:02;10.00;49.10
6627;DHT22;3349;49.830;8.748;2024-03-25T09:29:28;11.20;46.20
6627;DHT22;3349;49.830;8.748;2024-03-25T09:31:55;12.20;40.60
6627;DHT22;3349;49.830;8.748;2024-03-25T09:34:21;13.40;37.50
6627;DHT22;3349;49.830;8.748;2024-03-25T09:36:46;14.90;35.30
6627;DHT22;3349;49.830;8.748;2024-03-25T09:39:12;15.40;33.20
6627;DHT22;3349;49.830;8.748;2024-03-25T09:41:39;15.90;33.50
6627;DHT22;3349;49.830;8.748;2024-03-25T09:44:08;16.00;31.80
6627;DHT22;3349;49.830;8.748;2024-03-25T09:46:34;16.30;31.00
6627;DHT22;3349;49.830;8.748;2024-03-25T09:49:01;16.30;31.20
6627;DHT22;3349;49.830;8.748;2024-03-25T09:51:27;16.80;29.40
6627;DHT22;3349;49.830;8.748;2024-03-25T09:53:53;17.00;29.90
6627;DHT22;3349;49.830;8.748;2024-03-25T09:56:19;17.20;29.30
6627;DHT22;3349;49.830;8.748;2024-03-25T09:58:44;17.20;29.20
6627;DHT22;3349;49.830;8.748;2024-03-25T10:01:10;17.90;28.20
6627;DHT22;3349;49.830;8.748;2024-03-25T10:03:36;18.00;27.70
6627;DHT22;3349;49.830;8.748;2024-03-25T10:06:04;18.50;26.10
6627;DHT22;3349;49.830;8.748;2024-03-25T10:08:30;18.40;26.70
6627;DHT22;3349;49.830;8.748;2024-03-25T10:10:55;18.50;25.80
6627;DHT22;3349;49.830;8.748;2024-03-25T10:13:21;18.50;26.10
6627;DHT22;3349;49.830;8.748;2024-03-25T10:15:47;19.10;25.60
6627;DHT22;3349;49.830;8.748;2024-03-25T10:18:13;18.90;25.60
6627;DHT22;3349;49.830;8.748;2024-03-25T10:20:47;18.80;25.90
6627;DHT22;3349;49.830;8.748;2024-03-25T10:23:14;19.20;25.70
6627;DHT22;3349;49.830;8.748;2024-03-25T10:25:40;19.30;26.00
6627;DHT22;3349;49.830;8.748;2024-03-25T10:28:06;19.90;24.80
6627;DHT22;3349;49.830;8.748;2024-03-25T10:30:33;20.00;24.90
6627;DHT22;3349;49.830;8.748;2024-03-25T10:33:00;19.90;23.50
6627;DHT22;3349;49.830;8.748;2024-03-25T10:35:27;19.30;23.70
6627;DHT22;3349;49.830;8.748;2024-03-25T10:37:55;19.00;23.50
6627;DHT22;3349;49.830;8.748;2024-03-25T10:40:26;18.40;23.80
6627;DHT22;3349;49.830;8.748;2024-03-25T10:42:56;18.30;23.50
6627;DHT22;3349;49.830;8.748;2024-03-25T10:45:26;18.60;23.80
6627;DHT22;3349;49.830;8.748;2024-03-25T10:47:53;19.70;23.20
6627;DHT22;3349;49.830;8.748;2024-03-25T10:50:21;20.10;23.40
6627;DHT22;3349;49.830;8.748;2024-03-25T10:52:50;20.60;22.90
6627;DHT22;3349;49.830;8.748;2024-03-25T10:55:17;20.70;23.30
6627;DHT22;3349;49.830;8.748;2024-03-25T10:57:46;21.10;22.50
6627;DHT22;3349;49.830;8.748;2024-03-25T11:00:13;20.20;22.30
6627;DHT22;3349;49.830;8.748;2024-03-25T11:02:40;20.60;22.80
6627;DHT22;3349;49.830;8.748;2024-03-25T11:05:06;19.90;22.70
6627;DHT22;3349;49.830;8.748;2024-03-25T11:07:32;19.50;23.30
6627;DHT22;3349;49.830;8.748;2024-03-25T11:10:05;19.00;23.60
6627;DHT22;3349;49.830;8.748;2024-03-25T11:12:32;18.40;24.40
6627;DHT22;3349;49.830;8.748;2024-03-25T11:15:01;18.20;24.70
6627;DHT22;3349;49.830;8.748;2024-03-25T11:17:27;18.50;24.60
6627;DHT22;3349;49.830;8.748;2024-03-25T11:19:52;18.50;24.40
6627;DHT22;3349;49.830;8.748;2024-03-25T11:22:24;18.30;23.70
6627;DHT22;3349;49.830;8.748;2024-03-25T11:24:50;18.10;23.80
6627;DHT22;3349;49.830;8.748;2024-03-25T11:27:21;18.80;24.00
6627;DHT22;3349;49.830;8.748;2024-03-25T11:29:47;19.30;23.70
6627;DHT22;3349;49.830;8.748;2024-03-25T11:32:15;18.90;23.50
6627;DHT22;3349;49.830;8.748;2024-03-25T11:34:50;18.90;23.50
6627;DHT22;3349;49.830;8.748;2024-03-25T11:37:16;18.60;23.30
6627;DHT22;3349;49.830;8.748;2024-03-25T11:39:42;18.20;23.60
6627;DHT22;3349;49.830;8.748;2024-03-25T11:42:08;18.30;23.80
6627;DHT22;3349;49.830;8.748;2024-03-25T11:44:36;18.50;23.60
6627;DHT22;3349;49.830;8.748;2024-03-25T11:47:02;18.70;23.40
6627;DHT22;3349;49.830;8.748;2024-03-25T11:49:29;19.10;23.60
6627;DHT22;3349;49.830;8.748;2024-03-25T11:51:55;19.20;23.10
6627;DHT22;3349;49.830;8.748;2024-03-25T11:54:21;18.80;22.50
6627;DHT22;3349;49.830;8.748;2024-03-25T11:56:47;18.20;22.90
6627;DHT22;3349;49.830;8.748;2024-03-25T11:59:13;17.40;22.50
6627;DHT22;3349;49.830;8.748;2024-03-25T12:01:38;17.50;23.30
6627;DHT22;3349;49.830;8.748;2024-03-25T12:04:11;17.30;23.20
6627;DHT22;3349;49.830;8.748;2024-03-25T12:06:38;18.60;23.30
6627;DHT22;3349;49.830;8.748;2024-03-25T12:09:04;18.70;23.30
6627;DHT22;3349;49.830;8.748;2024-03-25T12:11:48;19.80;23.50
6627;DHT22;3349;49.830;8.748;2024-03-25T12:14:14;20.90;22.60
6627;DHT22;3349;49.830;8.748;2024-03-25T12:16:40;21.90;20.40
6627;DHT22;3349;49.830;8.748;2024-03-25T12:19:06;22.70;19.90
6627;DHT22;3349;49.830;8.748;2024-03-25T12:21:32;23.40;19.80
6627;DHT22;3349;49.830;8.748;2024-03-25T12:24:00;24.10;19.70
6627;DHT22;3349;49.830;8.748;2024-03-25T12:26:26;23.90;18.10
6627;DHT22;3349;49.830;8.748;2024-03-25T12:28:52;23.60;18.00
6627;DHT22;3349;49.830;8.748;2024-03-25T12:31:18;24.20;18.30
6627;DHT22;3349;49.830;8.748;2024-03-25T12:33:44;24.90;18.10
6627;DHT22;3349;49.830;8.748;2024-03-25T12:36:12;26.20;17.20
6627;DHT22;3349;49.830;8.748;2024-03-25T12:38:37;25.70;16.40
6627;DHT22;3349;49.830;8.748;2024-03-25T12:41:06;23.90;16.30
6627;DHT22;3349;49.830;8.748;2024-03-25T12:43:33;21.10;17.70
6627;DHT22;3349;49.830;8.748;2024-03-25T12:45:59;19.50;19.70
6627;DHT22;3349;49.830;8.748;2024-03-25T12:48:25;18.10;21.20
6627;DHT22;3349;49.830;8.748;2024-03-25T12:50:52;19.10;21.20
6627;DHT22;3349;49.830;8.748;2024-03-25T12:53:18;19.60;21.00
6627;DHT22;3349;49.830;8.748;2024-03-25T12:55:44;20.70;19.60
6627;DHT22;3349;49.830;8.748;2024-03-25T12:58:11;20.80;19.10
6627;DHT22;3349;49.830;8.748;2024-03-25T13:00:38;21.10;19.10
6627;DHT22;3349;49.830;8.748;2024-03-25T13:03:04;21.80;18.60
6627;DHT22;3349;49.830;8.748;2024-03-25T13:05:30;21.80;18.20
6627;DHT22;3349;49.830;8.748;2024-03-25T13:07:56;21.70;18.70
6627;DHT22;3349;49.830;8.748;2024-03-25T13:10:21;22.00;18.30
6627;DHT22;3349;49.830;8.748;2024-03-25T13:12:47;22.20;18.40
6627;DHT22;3349;49.830;8.748;2024-03-25T13:15:14;23.00;18.70
6627;DHT22;3349;49.830;8.748;2024-03-25T13:17:40;23.70;17.40
6627;DHT22;3349;49.830;8.748;2024-03-25T13:20:07;22.70;17.10
6627;DHT22;3349;49.830;8.748;2024-03-25T13:22:33;21.80;17.80
6627;DHT22;3349;49.830;8.748;2024-03-25T13:24:59;22.40;17.60
6627;DHT22;3349;49.830;8.748;2024-03-25T13:27:25;22.20;17.30
6627;DHT22;3349;49.830;8.748;2024-03-25T13:29:50;22.60;17.50
6627;DHT22;3349;49.830;8.748;2024-03-25T13:32:18;23.10;17.60
6627;DHT22;3349;49.830;8.748;2024-03-25T13:34:43;23.30;17.40
6627;DHT22;3349;49.830;8.748;2024-03-25T13:37:09;23.90;17.30
6627;DHT22;3349;49.830;8.748;2024-03-25T13:39:35;24.70;17.60
6627;DHT22;3349;49.830;8.748;2024-03-25T13:42:01;25.10;16.30
6627;DHT22;3349;49.830;8.748;2024-03-25T13:44:27;25.30;16.40
6627;DHT22;3349;49.830;8.748;2024-03-25T13:46:53;25.70;16.80
6627;DHT22;3349;49.830;8.748;2024-03-25T13:49:20;26.30;16.40
6627;DHT22;3349;49.830;8.748;2024-03-25T13:51:46;26.10;16.30
6627;DHT22;3349;49.830;8.748;2024-03-25T13:54:12;25.90;16.30
6627;DHT22;3349;49.830;8.748;2024-03-25T13:56:38;26.50;15.70
6627;DHT22;3349;49.830;8.748;2024-03-25T13:59:04;26.20;16.00
6627;DHT22;3349;49.830;8.748;2024-03-25T14:01:29;26.10;15.20
6627;DHT22;3349;49.830;8.748;2024-03-25T14:03:55;25.90;15.60
6627;DHT22;3349;49.830;8.748;2024-03-25T14:06:22;26.50;15.00
6627;DHT22;3349;49.830;8.748;2024-03-25T14:08:48;26.40;15.20
6627;DHT22;3349;49.830;8.748;2024-03-25T14:11:14;25.80;15.10
6627;DHT22;3349;49.830;8.748;2024-03-25T14:13:39;26.00;15.10
6627;DHT22;3349;49.830;8.748;2024-03-25T14:16:05;25.30;15.40
6627;DHT22;3349;49.830;8.748;2024-03-25T14:18:31;25.10;16.00
6627;DHT22;3349;49.830;8.748;2024-03-25T14:20:57;24.50;15.90
6627;DHT22;3349;49.830;8.748;2024-03-25T14:23:24;24.60;16.30
6627;DHT22;3349;49.830;8.748;2024-03-25T14:25:50;24.00;16.50
6627;DHT22;3349;49.830;8.748;2024-03-25T14:28:16;24.10;16.20
6627;DHT22;3349;49.830;8.748;2024-03-25T14:30:41;23.90;17.00
6627;DHT22;3349;49.830;8.748;2024-03-25T14:33:07;24.10;17.10
6627;DHT22;3349;49.830;8.748;2024-03-25T14:35:33;23.80;16.20
6627;DHT22;3349;49.830;8.748;2024-03-25T14:37:59;23.90;17.50
6627;DHT22;3349;49.830;8.748;2024-03-25T14:40:26;23.80;16.60
6627;DHT22;3349;49.830;8.748;2024-03-25T14:42:52;24.60;16.40
6627;DHT22;3349;49.830;8.748;2024-03-25T14:45:17;24.20;15.60
6627;DHT22;3349;49.830;8.748;2024-03-25T14:47:43;24.00;16.00
6627;DHT22;3349;49.830;8.748;2024-03-25T14:50:09;24.00;16.00
6627;DHT22;3349;49.830;8.748;2024-03-25T14:52:35;24.30;16.30
6627;DHT22;3349;49.830;8.748;2024-03-25T14:55:01;24.10;16.10
6627;DHT22;3349;49.830;8.748;2024-03-25T14:57:28;23.90;16.20
6627;DHT22;3349;49.830;8.748;2024-03-25T14:59:54;23.60;16.30
6627;DHT22;3349;49.830;8.748;2024-03-25T15:02:20;23.70;16.10
6627;DHT22;3349;49.830;8.748;2024-03-25T15:04:45;23.70;16.40
6627;DHT22;3349;49.830;8.748;2024-03-25T15:07:11;23.70;16.00
6627;DHT22;3349;49.830;8.748;2024-03-25T15:09:37;23.70;17.10
6627;DHT22;3349;49.830;8.748;2024-03-25T15:12:03;23.50;16.80
6627;DHT22;3349;49.830;8.748;2024-03-25T15:14:31;23.20;17.00
6627;DHT22;3349;49.830;8.748;2024-03-25T15:16:57;23.40;16.90
6627;DHT22;3349;49.830;8.748;2024-03-25T15:19:23;23.30;17.10
6627;DHT22;3349;49.830;8.748;2024-03-25T15:21:49;23.20;16.50
6627;DHT22;3349;49.830;8.748;2024-03-25T15:24:15;23.10;16.50
6627;DHT22;3349;49.830;8.748;2024-03-25T15:26:41;23.10;16.50
6627;DHT22;3349;49.830;8.748;2024-03-25T15:29:07;23.30;16.30
6627;DHT22;3349;49.830;8.748;2024-03-25T15:31:34;22.90;16.70
6627;DHT22;3349;49.830;8.748;2024-03-25T15:34:00;23.00;17.10
6627;DHT22;3349;49.830;8.748;2024-03-25T15:36:26;22.90;17.00
6627;DHT22;3349;49.830;8.748;2024-03-25T15:38:52;22.50;17.00
6627;DHT22;3349;49.830;8.748;2024-03-25T15:41:17;22.50;17.20
6627;DHT22;3349;49.830;8.748;2024-03-25T15:43:43;22.40;16.10
6627;DHT22;3349;49.830;8.748;2024-03-25T15:46:09;22.10;17.30
6627;DHT22;3349;49.830;8.748;2024-03-25T15:48:36;21.90;18.20
6627;DHT22;3349;49.830;8.748;2024-03-25T15:51:02;22.20;17.90
6627;DHT22;3349;49.830;8.748;2024-03-25T15:53:28;21.50;18.00
6627;DHT22;3349;49.830;8.748;2024-03-25T15:55:54;20.90;17.50
6627;DHT22;3349;49.830;8.748;2024-03-25T15:58:19;20.80;18.10
6627;DHT22;3349;49.830;8.748;2024-03-25T16:00:45;20.60;18.60
6627;DHT22;3349;49.830;8.748;2024-03-25T16:03:11;20.40;18.90
6627;DHT22;3349;49.830;8.748;2024-03-25T16:05:38;20.50;19.20
6627;DHT22;3349;49.830;8.748;2024-03-25T16:08:05;20.60;19.20
6627;DHT22;3349;49.830;8.748;2024-03-25T16:10:32;20.40;19.30